Time;durP1;ratioP1;P1;durP2;ratioP2;P2;SDS_P1;SDS_P2;PMS_P1;PMS_P2;Temp;Humidity;BMP_temperature;BMP_pressure;BME280_temperature;BME280_humidity;BME280_pressure;Samples;Min_cycle;Max_cycle;Signal;HPM_P1;HPM_P2
2021/07/07 00:00:37;;;;;;;1.25;1.15;;;23.50;54.10;;;;;;5103570;28;20046;-37
2021/07/07 00:03:03;;;;;;;1.30;1.20;;;23.40;53.70;;;;;;5103572;28;20038;-37
2021/07/07 00:05:29;;;;;;;1.50;1.40;;;23.30;53.50;;;;;;5103285;28;20024;-37
2021/07/07 00:07:56;;;;;;;1.40;1.30;;;23.30;53.80;;;;;;5123096;28;20028;-37
2021/07/07 00:10:23;;;;;;;1.20;1.10;;;23.40;55.20;;;;;;5119426;28;20023;-37
2021/07/07 00:12:49;;;;;;;;;;;23.50;55.50;;;;;;5124157;28;20039;-37
2021/07/07 00:15:19;;;;;;;1.15;1.05;;;23.50;55.30;;;;;;5123551;28;19907;-37
2021/07/07 00:17:46;;;;;;;1.00;1.00;;;23.50;55.40;;;;;;5122600;28;20030;-37
2021/07/07 00:20:14;;;;;;;1.40;1.30;;;23.60;55.40;;;;;;5123567;28;20058;-37
2021/07/07 00:22:40;;;;;;;1.55;1.10;;;23.60;55.50;;;;;;5123812;28;20046;-37
2021/07/07 00:25:07;;;;;;;1.45;1.35;;;23.60;55.70;;;;;;5123562;28;20084;-37
2021/07/07 00:27:33;;;;;;;1.30;1.20;;;23.60;55.90;;;;;;5123810;28;20055;-37
2021/07/07 00:30:00;;;;;;;1.35;1.25;;;23.60;55.90;;;;;;5123484;28;20381;-37
2021/07/07 00:32:26;;;;;;;1.48;1.38;;;23.60;56.00;;;;;;5123643;28;20039;-37
2021/07/07 00:34:52;;;;;;;1.20;1.13;;;23.70;56.30;;;;;;5123269;28;20064;-36
2021/07/07 00:37:19;;;;;;;1.38;1.27;;;23.70;56.40;;;;;;5123494;28;20051;-37
2021/07/07 00:39:45;;;;;;;1.38;1.27;;;23.70;56.40;;;;;;5123208;28;20042;-37
2021/07/07 00:42:11;;;;;;;1.50;1.40;;;23.70;56.30;;;;;;5125856;28;20133;-37
2021/07/07 00:44:40;;;;;;;1.30;1.20;;;23.70;56.40;;;;;;5127271;27;20023;-37
2021/07/07 00:47:06;;;;;;;1.52;1.42;;;23.70;56.50;;;;;;5127351;28;20023;-37
2021/07/07 00:49:33;;;;;;;1.13;1.05;;;23.70;56.50;;;;;;5127343;28;20023;-37
2021/07/07 00:51:59;;;;;;;1.55;1.45;;;23.70;56.60;;;;;;5127216;28;20020;-37
2021/07/07 00:54:25;;;;;;;1.60;1.50;;;23.70;56.70;;;;;;5127455;28;20069;-37
2021/07/07 00:56:52;;;;;;;1.45;1.35;;;23.70;56.80;;;;;;5125701;28;20019;-37
2021/07/07 00:59:20;;;;;;;1.40;1.30;;;23.70;56.90;;;;;;5109166;28;20024;-37
2021/07/07 01:01:46;;;;;;;1.63;1.45;;;23.70;56.90;;;;;;5127074;28;20065;-37
2021/07/07 01:04:13;;;;;;;1.30;1.20;;;23.80;57.10;;;;;;5126875;28;20116;-37
2021/07/07 01:06:39;;;;;;;1.57;1.47;;;23.80;57.10;;;;;;5126738;28;20019;-37
2021/07/07 01:09:05;;;;;;;1.50;1.40;;;23.80;57.20;;;;;;5123064;28;20087;-37
2021/07/07 01:11:33;;;;;;;1.60;1.50;;;23.80;57.30;;;;;;5119955;28;20031;-37
2021/07/07 01:13:59;;;;;;;1.60;1.50;;;23.80;57.50;;;;;;5118323;28;20073;-37
2021/07/07 01:16:29;;;;;;;1.60;1.50;;;23.90;57.60;;;;;;5120050;28;20044;-37
2021/07/07 01:18:55;;;;;;;1.58;1.40;;;23.90;57.70;;;;;;5117570;28;20127;-37
2021/07/07 01:21:22;;;;;;;1.77;1.63;;;23.90;57.70;;;;;;5119465;28;20777;-37
2021/07/07 01:23:49;;;;;;;1.50;1.40;;;23.90;57.70;;;;;;5119987;28;20031;-37
2021/07/07 01:26:15;;;;;;;;;;;23.90;57.70;;;;;;5120370;28;20034;-36
2021/07/07 01:28:41;;;;;;;1.67;1.58;;;23.90;57.80;;;;;;5119469;28;19942;-37
2021/07/07 01:31:07;;;;;;;1.60;1.50;;;23.90;57.80;;;;;;5119726;28;20096;-37
2021/07/07 01:33:34;;;;;;;1.60;1.45;;;23.90;57.90;;;;;;5119410;28;20084;-37
2021/07/07 01:36:00;;;;;;;1.70;1.60;;;23.90;57.90;;;;;;5118754;28;20038;-37
2021/07/07 01:38:26;;;;;;;1.80;1.70;;;23.90;57.90;;;;;;5121971;28;20063;-37
2021/07/07 01:40:57;;;;;;;1.60;1.50;;;23.90;57.90;;;;;;5126503;28;20023;-37
2021/07/07 01:43:23;;;;;;;1.40;1.30;;;23.90;57.80;;;;;;5126332;28;20023;-39
2021/07/07 01:45:49;;;;;;;1.60;1.50;;;23.90;57.80;;;;;;5126165;28;20379;-37
2021/07/07 01:48:15;;;;;;;1.40;1.30;;;23.90;57.90;;;;;;5126248;28;20639;-37
2021/07/07 01:50:41;;;;;;;1.60;1.50;;;23.90;58.00;;;;;;5126513;28;20035;-37
2021/07/07 01:53:07;;;;;;;1.50;1.40;;;23.90;58.00;;;;;;5125025;28;20128;-37
2021/07/07 01:55:34;;;;;;;1.67;1.58;;;23.90;58.30;;;;;;5125921;28;20023;-37
2021/07/07 01:58:00;;;;;;;1.80;1.70;;;23.90;58.40;;;;;;5126058;28;20037;-37
2021/07/07 02:00:32;;;;;;;1.60;1.50;;;23.90;58.60;;;;;;5126164;28;20023;-37
2021/07/07 02:02:59;;;;;;;1.58;1.48;;;23.90;58.60;;;;;;5126028;28;20019;-37
2021/07/07 02:05:28;;;;;;;1.70;1.60;;;23.90;59.20;;;;;;5125735;28;20045;-37
2021/07/07 02:07:55;;;;;;;1.75;1.65;;;23.90;58.80;;;;;;5125929;28;20118;-37
2021/07/07 02:10:21;;;;;;;1.60;1.50;;;23.90;58.80;;;;;;5124712;28;20035;-37
2021/07/07 02:12:47;;;;;;;1.98;1.77;;;23.90;59.00;;;;;;5124440;28;20275;-37
2021/07/07 02:15:19;;;;;;;1.80;1.70;;;24.00;58.90;;;;;;5125686;28;20061;-37
2021/07/07 02:17:45;;;;;;;1.60;1.50;;;24.00;58.90;;;;;;5124767;28;20089;-36
2021/07/07 02:20:12;;;;;;;1.80;1.70;;;24.00;58.90;;;;;;5124268;28;20073;-37
2021/07/07 02:22:39;;;;;;;1.90;1.80;;;24.00;58.90;;;;;;5125498;28;20031;-37
2021/07/07 02:25:11;;;;;;;1.70;1.60;;;24.00;58.90;;;;;;5125506;28;20046;-37
2021/07/07 02:27:37;;;;;;;2.00;1.90;;;24.00;58.90;;;;;;5124872;28;20092;-37
2021/07/07 02:30:05;;;;;;;1.75;1.65;;;24.00;58.80;;;;;;5125472;28;20028;-37
2021/07/07 02:32:31;;;;;;;2.20;2.00;;;24.00;58.70;;;;;;5125227;28;20110;-37
2021/07/07 02:34:57;;;;;;;1.92;1.83;;;24.00;58.80;;;;;;5125399;28;20460;-37
2021/07/07 02:37:23;;;;;;;1.60;1.50;;;24.00;58.90;;;;;;5124855;28;20031;-37
2021/07/07 02:39:50;;;;;;;2.03;1.92;;;24.00;58.80;;;;;;5125406;28;20027;-37
2021/07/07 02:42:16;;;;;;;1.60;1.50;;;24.00;58.90;;;;;;5125165;27;20059;-37
2021/07/07 02:44:43;;;;;;;2.00;1.90;;;24.00;58.90;;;;;;5124785;28;20024;-37
2021/07/07 02:47:10;;;;;;;1.85;1.75;;;24.00;59.00;;;;;;5124891;28;20035;-37
2021/07/07 02:49:36;;;;;;;1.67;1.58;;;24.00;59.20;;;;;;5125014;28;20035;-37
2021/07/07 02:52:03;;;;;;;1.90;1.80;;;24.00;59.30;;;;;;5124917;28;20434;-37
2021/07/07 02:54:29;;;;;;;1.80;1.70;;;24.00;59.50;;;;;;5124978;28;20065;-37
2021/07/07 02:56:55;;;;;;;1.88;1.77;;;24.00;59.50;;;;;;5124753;28;20038;-37
2021/07/07 02:59:21;;;;;;;1.95;1.85;;;24.00;60.00;;;;;;5124900;28;20035;-37
2021/07/07 03:01:48;;;;;;;1.70;1.60;;;24.00;59.50;;;;;;5124822;28;20106;-37
2021/07/07 03:04:14;;;;;;;2.13;2.00;;;24.00;59.60;;;;;;5124337;28;20024;-37
2021/07/07 03:06:40;;;;;;;1.90;1.80;;;24.00;59.60;;;;;;5123923;28;20107;-37
2021/07/07 03:09:06;;;;;;;1.75;1.65;;;24.00;59.70;;;;;;5124701;28;20020;-37
2021/07/07 03:11:35;;;;;;;1.58;1.48;;;24.00;59.70;;;;;;5124802;28;20042;-37
2021/07/07 03:14:01;;;;;;;1.70;1.60;;;24.00;59.80;;;;;;5124405;28;20062;-37
2021/07/07 03:16:27;;;;;;;1.80;1.70;;;24.00;59.80;;;;;;5124410;28;20346;-38
2021/07/07 03:18:54;;;;;;;2.40;1.85;;;24.00;59.90;;;;;;5123779;28;20098;-37
2021/07/07 03:21:20;;;;;;;1.98;1.77;;;24.00;60.00;;;;;;5124656;28;20118;-37
2021/07/07 03:23:47;;;;;;;1.88;1.77;;;24.00;59.90;;;;;;5124412;28;20065;-37
2021/07/07 03:26:13;;;;;;;;;;;24.00;59.90;;;;;;5124822;27;20026;-37
2021/07/07 03:28:39;;;;;;;1.70;1.60;;;24.00;59.90;;;;;;5124266;28;19912;-37
2021/07/07 03:31:06;;;;;;;1.80;1.70;;;24.00;59.80;;;;;;5124563;28;20031;-37
2021/07/07 03:33:32;;;;;;;1.63;1.53;;;24.00;59.80;;;;;;5123958;28;20059;-37
2021/07/07 03:36:01;;;;;;;1.58;1.48;;;24.00;59.90;;;;;;5123768;28;20077;-37
2021/07/07 03:38:27;;;;;;;1.52;1.42;;;24.00;59.80;;;;;;5124291;28;20122;-37
2021/07/07 03:40:54;;;;;;;1.58;1.48;;;24.00;59.80;;;;;;5124187;28;20020;-37
2021/07/07 03:43:20;;;;;;;1.73;1.60;;;24.00;59.80;;;;;;5124134;28;20027;-37
2021/07/07 03:45:46;;;;;;;2.15;1.95;;;24.00;59.90;;;;;;5124019;28;20023;-37
2021/07/07 03:48:12;;;;;;;1.83;1.70;;;24.00;60.00;;;;;;5122289;28;20126;-37
2021/07/07 03:50:39;;;;;;;1.80;1.70;;;24.00;60.20;;;;;;5123870;28;20034;-37
2021/07/07 03:53:06;;;;;;;1.77;1.67;;;24.00;60.30;;;;;;5124115;28;20051;-37
2021/07/07 03:55:33;;;;;;;1.70;1.60;;;24.00;60.40;;;;;;5124034;28;20027;-37
2021/07/07 03:58:00;;;;;;;1.70;1.55;;;24.00;60.40;;;;;;5122282;28;20568;-38
2021/07/07 04:00:27;;;;;;;1.73;1.63;;;24.00;60.40;;;;;;5123891;28;20035;-37
2021/07/07 04:02:54;;;;;;;1.73;1.63;;;24.00;60.50;;;;;;5121724;28;20030;-37
2021/07/07 04:05:20;;;;;;;1.52;1.42;;;24.00;60.60;;;;;;5123496;28;20835;-37
2021/07/07 04:07:46;;;;;;;1.80;1.60;;;24.00;60.70;;;;;;5123649;28;20027;-38
2021/07/07 04:10:13;;;;;;;1.70;1.52;;;24.00;60.80;;;;;;5123810;28;20024;-37
2021/07/07 04:12:40;;;;;;;1.70;1.52;;;24.00;60.80;;;;;;5123632;28;20023;-38
2021/07/07 04:15:07;;;;;;;1.90;1.80;;;24.00;60.90;;;;;;5123928;28;20035;-37
2021/07/07 04:17:33;;;;;;;1.60;1.50;;;24.00;60.90;;;;;;5126960;28;20042;-37
2021/07/07 04:19:59;;;;;;;1.60;1.50;;;24.00;60.90;;;;;;5127237;28;20048;-37
2021/07/07 04:22:26;;;;;;;1.75;1.65;;;24.00;61.00;;;;;;5127409;28;20015;-37
2021/07/07 04:24:52;;;;;;;2.03;1.60;;;24.00;60.90;;;;;;5127817;28;20030;-37
2021/07/07 04:27:18;;;;;;;1.60;1.50;;;23.90;60.90;;;;;;5126064;28;20031;-37
2021/07/07 04:29:44;;;;;;;1.70;1.60;;;24.00;61.00;;;;;;5127632;28;20753;-37
2021/07/07 04:32:10;;;;;;;1.70;1.60;;;24.00;60.90;;;;;;5127317;28;20027;-37
2021/07/07 04:34:37;;;;;;;1.52;1.42;;;24.00;60.90;;;;;;5127397;28;20036;-37
2021/07/07 04:37:03;;;;;;;1.30;1.20;;;23.90;60.70;;;;;;5127135;28;20027;-37
2021/07/07 04:39:29;;;;;;;1.98;1.40;;;24.00;60.60;;;;;;5127414;28;20100;-37
2021/07/07 04:41:56;;;;;;;1.75;1.65;;;23.90;60.40;;;;;;5127344;28;20023;-37
2021/07/07 04:44:22;;;;;;;2.28;1.50;;;23.90;60.50;;;;;;5127298;28;20023;-37
2021/07/07 04:46:48;;;;;;;1.45;1.35;;;23.90;60.60;;;;;;5126960;28;20088;-37
2021/07/07 04:49:14;;;;;;;1.27;1.17;;;23.90;60.80;;;;;;5127193;28;20032;-37
2021/07/07 04:51:40;;;;;;;1.50;1.40;;;23.90;60.90;;;;;;5126922;28;20024;-37
2021/07/07 04:54:06;;;;;;;1.60;1.23;;;23.90;61.00;;;;;;5126916;28;20039;-40
2021/07/07 04:56:33;;;;;;;1.50;1.40;;;23.90;61.30;;;;;;5126972;28;20015;-37
2021/07/07 04:58:59;;;;;;;1.60;1.50;;;23.90;61.40;;;;;;5126867;28;20716;-37
2021/07/07 05:01:25;;;;;;;1.48;1.38;;;23.90;61.40;;;;;;5126800;28;20040;-37
2021/07/07 05:03:51;;;;;;;1.55;1.38;;;23.90;61.30;;;;;;5126801;28;20027;-37
2021/07/07 05:06:18;;;;;;;1.42;1.33;;;23.90;61.50;;;;;;5126776;28;20031;-37
2021/07/07 05:08:44;;;;;;;1.75;1.40;;;23.90;61.40;;;;;;5126192;28;20031;-37
2021/07/07 05:11:10;;;;;;;1.67;1.55;;;23.90;61.40;;;;;;5126763;28;20023;-37
2021/07/07 05:13:37;;;;;;;2.47;1.40;;;23.90;61.50;;;;;;5126427;28;20031;-37
2021/07/07 05:16:03;;;;;;;1.73;1.40;;;23.90;61.50;;;;;;5125425;28;20053;-37
2021/07/07 05:18:30;;;;;;;1.30;1.20;;;23.90;61.40;;;;;;5125580;28;20094;-37
2021/07/07 05:20:57;;;;;;;1.40;1.30;;;23.90;61.80;;;;;;5126556;28;20035;-37
2021/07/07 05:23:23;;;;;;;1.48;1.38;;;23.90;61.50;;;;;;5126392;28;20130;-37
2021/07/07 05:25:49;;;;;;;1.38;1.20;;;23.90;61.60;;;;;;5126420;28;20024;-37
2021/07/07 05:28:15;;;;;;;1.42;1.33;;;23.90;61.60;;;;;;5125906;28;20034;-37
2021/07/07 05:30:41;;;;;;;1.23;1.13;;;23.90;61.60;;;;;;5126032;28;20045;-37
2021/07/07 05:33:08;;;;;;;1.65;1.35;;;23.90;61.60;;;;;;5125951;28;20035;-37
2021/07/07 05:35:38;;;;;;;1.30;1.15;;;23.90;61.70;;;;;;5126231;28;20050;-37
2021/07/07 05:38:05;;;;;;;1.20;1.10;;;23.90;61.70;;;;;;5125968;28;20139;-37
2021/07/07 05:40:31;;;;;;;1.45;1.35;;;23.90;61.90;;;;;;5126154;28;20043;-37
2021/07/07 05:42:57;;;;;;;1.73;1.23;;;23.80;61.90;;;;;;5126101;28;20024;-37
2021/07/07 05:45:25;;;;;;;1.30;1.10;;;23.80;61.90;;;;;;5126019;28;20050;-37
2021/07/07 05:47:51;;;;;;;1.67;1.30;;;23.80;61.80;;;;;;5125090;28;20106;-37
2021/07/07 05:50:17;;;;;;;1.52;1.40;;;23.80;61.90;;;;;;5125738;28;20115;-37
2021/07/07 05:52:44;;;;;;;1.30;1.20;;;23.80;62.00;;;;;;5125900;28;20036;-37
2021/07/07 05:55:10;;;;;;;1.83;1.50;;;23.80;62.20;;;;;;5125859;28;20095;-37
2021/07/07 05:57:40;;;;;;;1.52;1.33;;;23.80;62.00;;;;;;5125534;28;20027;-37
2021/07/07 06:00:16;;;;;;;1.45;1.35;;;23.80;61.80;;;;;;5125638;28;20531;-37
2021/07/07 06:02:43;;;;;;;1.30;1.20;;;23.80;61.80;;;;;;5125467;28;20030;-37
2021/07/07 06:05:10;;;;;;;1.02;1.00;;;23.80;61.80;;;;;;5125535;28;20035;-37
2021/07/07 06:07:38;;;;;;;1.35;1.00;;;23.80;61.70;;;;;;5125297;28;20473;-37
2021/07/07 06:10:05;;;;;;;1.27;1.17;;;23.80;61.80;;;;;;5119561;28;20032;-37
2021/07/07 06:12:31;;;;;;;1.20;1.10;;;23.80;61.80;;;;;;5118116;28;20028;-37
2021/07/07 06:14:57;;;;;;;1.67;1.08;;;23.80;61.80;;;;;;5118560;28;22583;-37
2021/07/07 06:17:23;;;;;;;1.50;1.40;;;23.80;61.80;;;;;;5117404;28;20032;-37
2021/07/07 06:19:49;;;;;;;1.52;1.10;;;23.70;61.70;;;;;;5117845;28;20104;-37
2021/07/07 06:22:16;;;;;;;1.15;1.00;;;23.70;61.80;;;;;;5118301;28;20035;-36
2021/07/07 06:24:42;;;;;;;1.10;0.90;;;23.70;61.90;;;;;;5118212;28;20032;-37
2021/07/07 06:27:08;;;;;;;1.23;1.13;;;23.70;61.60;;;;;;5118194;28;20115;-37
2021/07/07 06:29:34;;;;;;;1.20;1.10;;;23.70;61.60;;;;;;5117904;28;20750;-36
2021/07/07 06:32:00;;;;;;;1.20;1.10;;;23.70;61.70;;;;;;5117738;28;20027;-37
2021/07/07 06:34:26;;;;;;;1.27;1.15;;;23.70;61.80;;;;;;5117994;28;20039;-37
2021/07/07 06:36:53;;;;;;;1.23;1.13;;;23.70;61.90;;;;;;5117661;28;20053;-37
2021/07/07 06:39:19;;;;;;;1.05;0.90;;;23.70;61.80;;;;;;5121305;28;20046;-37
2021/07/07 06:41:45;;;;;;;1.50;1.17;;;23.70;61.60;;;;;;5124711;28;20027;-37
2021/07/07 06:44:11;;;;;;;1.40;1.05;;;23.70;61.50;;;;;;5124536;28;20553;-37
2021/07/07 06:46:37;;;;;;;1.65;0.95;;;23.70;61.30;;;;;;5124624;28;20059;-37
2021/07/07 06:49:04;;;;;;;1.60;1.38;;;23.70;61.30;;;;;;5124228;28;20027;-38
2021/07/07 06:51:30;;;;;;;1.45;1.17;;;23.70;61.20;;;;;;5124604;28;20034;-37
2021/07/07 06:53:56;;;;;;;0.70;0.70;;;23.70;61.40;;;;;;5124147;28;20040;-37
2021/07/07 06:56:22;;;;;;;1.27;1.17;;;23.70;61.70;;;;;;5124536;28;20030;-37
2021/07/07 06:58:48;;;;;;;1.13;1.00;;;23.70;61.90;;;;;;5123833;28;20027;-37
2021/07/07 07:01:15;;;;;;;1.38;1.10;;;23.70;62.10;;;;;;5124366;28;20028;-37
2021/07/07 07:03:41;;;;;;;1.20;1.00;;;23.70;62.10;;;;;;5124439;28;20030;-37
2021/07/07 07:06:07;;;;;;;1.23;1.13;;;23.70;62.10;;;;;;5123754;28;20120;-37
2021/07/07 07:08:33;;;;;;;1.88;1.08;;;23.70;62.20;;;;;;5121834;28;20027;-37
2021/07/07 07:10:59;;;;;;;1.67;1.15;;;23.70;62.10;;;;;;5116980;28;20024;-37
2021/07/07 07:13:25;;;;;;;1.10;1.00;;;23.70;62.10;;;;;;5116939;28;20035;-37
2021/07/07 07:15:52;;;;;;;1.15;1.05;;;23.70;62.10;;;;;;5117184;28;20024;-37
2021/07/07 07:18:18;;;;;;;1.00;0.80;;;23.60;62.10;;;;;;5116774;28;20114;-37
2021/07/07 07:20:44;;;;;;;1.77;1.13;;;23.70;62.10;;;;;;5117002;28;20042;-37
2021/07/07 07:23:10;;;;;;;1.13;0.80;;;23.60;62.00;;;;;;5116625;28;20020;-37
2021/07/07 07:25:37;;;;;;;1.02;0.85;;;23.60;62.20;;;;;;5117249;28;20019;-37
2021/07/07 07:28:04;;;;;;;2.00;1.20;;;23.60;62.00;;;;;;5116800;28;20027;-37
2021/07/07 07:30:31;;;;;;;1.58;0.95;;;23.60;62.00;;;;;;5116215;28;20043;-37
2021/07/07 07:32:57;;;;;;;1.50;1.08;;;23.60;62.10;;;;;;5117130;28;20511;-37
2021/07/07 07:35:23;;;;;;;1.20;0.88;;;23.60;61.90;;;;;;5115561;28;20055;-37
2021/07/07 07:37:59;;;;;;;0.82;0.82;;;23.60;61.80;;;;;;5116644;28;20032;-37
2021/07/07 07:40:58;;;;;;;1.88;0.93;;;23.60;61.70;;;;;;5123488;28;20078;-37
2021/07/07 07:43:21;;;;;;;1.02;0.93;;;23.60;61.60;;;;;;5120463;28;20047;-37
2021/07/07 07:45:49;;;;;;;1.25;1.15;;;23.60;61.60;;;;;;5123776;28;20038;-37
2021/07/07 07:48:15;;;;;;;0.70;0.70;;;23.60;61.60;;;;;;5123822;28;20028;-37
2021/07/07 07:50:42;;;;;;;1.10;1.00;;;23.60;61.50;;;;;;5122428;28;20028;-37
2021/07/07 07:53:08;;;;;;;1.73;1.13;;;23.60;61.60;;;;;;5123562;28;20063;-37
2021/07/07 07:55:34;;;;;;;1.40;1.00;;;23.60;61.70;;;;;;5123609;28;20026;-37
2021/07/07 07:58:00;;;;;;;0.88;0.70;;;23.60;61.90;;;;;;5123280;28;20023;-37
2021/07/07 08:00:27;;;;;;;0.80;0.80;;;23.60;62.00;;;;;;5123347;28;20019;-37
2021/07/07 08:02:55;;;;;;;1.27;0.80;;;23.60;62.10;;;;;;5123700;28;20031;-37
2021/07/07 08:05:21;;;;;;;1.15;1.00;;;23.60;62.20;;;;;;5123217;28;20023;-37
2021/07/07 08:07:47;;;;;;;1.05;0.80;;;23.60;62.40;;;;;;5121719;28;20027;-37
2021/07/07 08:10:16;;;;;;;1.38;0.88;;;23.60;62.40;;;;;;5121714;28;20039;-37
2021/07/07 08:12:42;;;;;;;1.77;1.00;;;23.60;62.40;;;;;;5123288;28;20035;-37
2021/07/07 08:15:09;;;;;;;1.20;0.82;;;23.60;62.50;;;;;;5123434;28;20031;-37
2021/07/07 08:17:35;;;;;;;1.90;0.82;;;23.60;62.50;;;;;;5122961;28;20027;-37
2021/07/07 08:20:02;;;;;;;1.73;0.88;;;23.60;62.60;;;;;;5123107;28;20051;-37
2021/07/07 08:22:29;;;;;;;2.25;0.90;;;23.50;62.50;;;;;;5123005;28;20023;-37
2021/07/07 08:24:55;;;;;;;1.17;0.95;;;23.50;62.60;;;;;;5122016;28;20043;-37
2021/07/07 08:27:21;;;;;;;1.00;0.80;;;23.50;62.50;;;;;;5123234;28;20026;-37
2021/07/07 08:29:47;;;;;;;0.68;0.68;;;23.50;62.40;;;;;;5122760;28;20085;-37
2021/07/07 08:32:13;;;;;;;1.33;0.90;;;23.50;62.40;;;;;;5123229;28;20028;-37
2021/07/07 08:34:40;;;;;;;1.05;0.82;;;23.50;62.10;;;;;;5121731;28;20061;-37
2021/07/07 08:37:06;;;;;;;1.20;1.00;;;23.50;62.10;;;;;;5123010;28;20049;-37
2021/07/07 08:39:32;;;;;;;0.80;0.80;;;23.50;61.90;;;;;;5123218;28;20032;-37
2021/07/07 08:41:58;;;;;;;1.13;0.77;;;23.50;61.90;;;;;;5121715;28;20016;-37
2021/07/07 08:44:25;;;;;;;2.50;0.90;;;23.50;61.90;;;;;;5123059;28;20035;-37
2021/07/07 08:46:52;;;;;;;1.00;0.77;;;23.50;61.90;;;;;;5123133;28;20019;-37
2021/07/07 08:49:20;;;;;;;2.58;0.93;;;23.50;61.80;;;;;;5123051;28;20032;-37
2021/07/07 08:51:46;;;;;;;1.25;1.08;;;23.50;61.80;;;;;;5122815;28;20496;-37
2021/07/07 08:54:12;;;;;;;1.60;0.80;;;23.50;61.80;;;;;;5123040;28;20040;-37
2021/07/07 08:56:41;;;;;;;1.10;0.90;;;23.50;61.80;;;;;;5123051;28;20023;-37
2021/07/07 08:59:08;;;;;;;1.45;1.00;;;23.50;61.90;;;;;;5122774;28;20032;-37
2021/07/07 09:02:01;;;;;;;1.55;0.90;;;23.50;62.10;;;;;;5122817;28;20020;-37
2021/07/07 09:04:43;;;;;;;0.70;0.70;;;23.50;62.10;;;;;;5118720;28;20031;-37
2021/07/07 09:07:11;;;;;;;0.90;0.90;;;23.50;62.30;;;;;;5126444;28;20030;-37
2021/07/07 09:09:40;;;;;;;0.82;0.80;;;23.50;62.50;;;;;;5126361;28;20032;-37
2021/07/07 09:12:17;;;;;;;1.17;0.80;;;23.50;62.40;;;;;;5105822;28;20031;-37
2021/07/07 09:15:04;;;;;;;1.17;0.80;;;23.50;62.50;;;;;;5106066;28;20032;-37
2021/07/07 09:17:37;;;;;;;1.58;0.98;;;23.50;62.60;;;;;;5108832;28;20047;-37
2021/07/07 09:20:28;;;;;;;1.17;0.80;;;23.50;62.60;;;;;;5126204;27;20099;-37
2021/07/07 09:23:16;;;;;;;1.55;0.82;;;23.50;62.60;;;;;;5126122;28;20212;-37
2021/07/07 09:25:53;;;;;;;0.63;0.57;;;23.50;62.50;;;;;;5126100;28;20035;-37
2021/07/07 09:28:23;;;;;;;0.90;0.80;;;23.40;62.50;;;;;;5126124;28;20090;-37
2021/07/07 09:30:50;;;;;;;1.50;1.00;;;23.50;62.30;;;;;;5125794;27;20399;-37
2021/07/07 09:33:16;;;;;;;0.90;0.80;;;23.50;62.20;;;;;;5125958;28;20095;-37
2021/07/07 09:35:43;;;;;;;1.63;1.10;;;23.40;62.10;;;;;;5125820;28;20043;-37
2021/07/07 09:38:09;;;;;;;1.20;0.90;;;23.40;62.10;;;;;;5124465;28;20434;-37
2021/07/07 09:40:41;;;;;;;1.17;0.80;;;23.40;62.00;;;;;;5125698;28;20019;-37
2021/07/07 09:43:08;;;;;;;1.38;0.75;;;23.40;62.00;;;;;;5126030;28;20061;-37
2021/07/07 09:45:34;;;;;;;0.77;0.77;;;23.40;62.10;;;;;;5124439;28;20019;-37
2021/07/07 09:48:00;;;;;;;1.63;0.90;;;23.40;62.00;;;;;;5125730;28;20080;-37
2021/07/07 09:50:26;;;;;;;1.40;0.80;;;23.40;62.00;;;;;;5125652;28;20028;-37
2021/07/07 09:52:54;;;;;;;2.08;0.90;;;23.40;62.00;;;;;;5124046;28;20047;-37
2021/07/07 09:55:21;;;;;;;1.40;0.85;;;23.40;62.00;;;;;;5125555;28;20030;-37
2021/07/07 09:57:48;;;;;;;0.80;0.70;;;23.40;62.00;;;;;;5125787;28;20020;-37
2021/07/07 10:00:19;;;;;;;0.98;0.75;;;23.40;62.10;;;;;;5125660;28;20061;-37
2021/07/07 10:02:48;;;;;;;0.98;0.70;;;23.40;62.10;;;;;;5125138;28;20092;-37
2021/07/07 10:05:15;;;;;;;1.08;0.82;;;23.40;62.30;;;;;;5124075;28;20462;-37
2021/07/07 10:07:43;;;;;;;1.25;0.73;;;23.40;62.20;;;;;;5125496;28;20149;-37
2021/07/07 10:10:13;;;;;;;3.13;0.80;;;23.40;62.20;;;;;;5125240;28;20083;-37
2021/07/07 10:12:44;;;;;;;0.70;0.65;;;23.40;62.20;;;;;;5123433;28;20031;-37
2021/07/07 10:15:12;;;;;;;1.08;0.70;;;23.40;63.00;;;;;;5124151;28;20031;-37
2021/07/07 10:17:39;;;;;;;1.30;0.80;;;23.30;62.30;;;;;;5124584;28;20026;-37
2021/07/07 10:20:07;;;;;;;0.50;0.50;;;23.40;62.30;;;;;;5123722;28;20055;-37
2021/07/07 10:22:34;;;;;;;0.98;0.80;;;23.30;62.30;;;;;;5124866;28;20095;-37
2021/07/07 10:25:00;;;;;;;1.17;0.77;;;23.30;62.20;;;;;;5123409;28;20054;-37
2021/07/07 10:27:26;;;;;;;1.35;0.95;;;23.30;62.20;;;;;;5106944;28;20682;-36
2021/07/07 10:29:52;;;;;;;0.90;0.80;;;23.30;62.10;;;;;;5106536;28;20059;-37
2021/07/07 10:32:18;;;;;;;1.15;0.80;;;23.30;62.10;;;;;;5124480;28;20020;-37
2021/07/07 10:34:44;;;;;;;1.00;0.90;;;23.30;62.10;;;;;;5124805;28;20047;-37
2021/07/07 10:37:11;;;;;;;0.70;0.70;;;23.30;62.10;;;;;;5102758;28;20138;-37
2021/07/07 10:39:37;;;;;;;1.27;1.00;;;23.30;62.10;;;;;;5119702;28;20127;-37
2021/07/07 10:42:04;;;;;;;1.10;0.75;;;23.30;62.00;;;;;;5124198;28;20476;-37
2021/07/07 10:44:38;;;;;;;;;;;23.30;62.10;;;;;;5124901;28;20039;-37
2021/07/07 10:47:12;;;;;;;0.90;0.80;;;23.30;62.10;;;;;;5124660;28;19910;-37
2021/07/07 10:49:58;;;;;;;0.75;0.68;;;23.30;62.10;;;;;;5124542;28;20034;-37
2021/07/07 10:52:43;;;;;;;0.80;0.70;;;23.30;62.10;;;;;;5123897;28;20058;-37
2021/07/07 10:55:13;;;;;;;0.90;0.65;;;23.30;62.20;;;;;;5123253;28;20047;-37
2021/07/07 10:57:40;;;;;;;2.15;0.90;;;23.30;62.20;;;;;;5124506;28;20024;-37
2021/07/07 11:00:07;;;;;;;0.90;0.70;;;23.30;62.10;;;;;;5124235;28;20053;-37
2021/07/07 11:02:33;;;;;;;0.82;0.63;;;23.30;62.20;;;;;;5124069;28;20020;-37
2021/07/07 11:05:04;;;;;;;1.00;0.90;;;23.30;62.30;;;;;;5122766;28;20027;-37
2021/07/07 11:07:39;;;;;;;0.98;0.85;;;23.30;62.30;;;;;;5106422;28;20027;-37
2021/07/07 11:10:12;;;;;;;1.95;0.80;;;23.30;62.30;;;;;;5124252;28;20048;-37
2021/07/07 11:12:41;;;;;;;1.05;0.93;;;23.30;62.30;;;;;;5122439;28;20035;-37
2021/07/07 11:15:10;;;;;;;1.23;0.70;;;23.30;62.30;;;;;;5124007;28;20019;-37
2021/07/07 11:17:40;;;;;;;1.00;0.80;;;23.30;62.30;;;;;;5123558;28;20550;-36
2021/07/07 11:20:14;;;;;;;1.40;0.70;;;23.30;62.30;;;;;;5123875;28;20085;-37
2021/07/07 11:22:41;;;;;;;1.33;0.90;;;23.30;62.40;;;;;;5123783;28;20036;-37
2021/07/07 11:25:10;;;;;;;1.30;0.65;;;23.30;62.30;;;;;;5123551;28;20035;-37
2021/07/07 11:27:36;;;;;;;1.00;0.80;;;23.30;62.30;;;;;;5124098;28;20034;-37
2021/07/07 11:30:07;;;;;;;1.57;0.80;;;23.30;62.30;;;;;;5123951;28;20028;-37
2021/07/07 11:32:38;;;;;;;1.35;0.80;;;23.30;62.30;;;;;;5122180;28;20058;-37
2021/07/07 11:35:09;;;;;;;1.15;0.80;;;23.30;62.30;;;;;;5124035;28;20027;-37
2021/07/07 11:37:35;;;;;;;1.23;0.73;;;23.30;62.30;;;;;;5123984;28;20028;-37
2021/07/07 11:40:12;;;;;;;1.27;0.70;;;23.20;62.20;;;;;;5123820;28;20051;-36
2021/07/07 11:43:05;;;;;;;0.87;0.67;;;23.20;62.20;;;;;;5123552;28;20027;-37
2021/07/07 11:45:54;;;;;;;1.48;0.77;;;23.20;62.20;;;;;;5123642;28;20736;-37
2021/07/07 11:48:27;;;;;;;0.70;0.60;;;23.20;62.20;;;;;;5123400;28;20027;-37
2021/07/07 11:50:57;;;;;;;1.67;0.73;;;23.20;62.20;;;;;;5123614;28;20043;-37
2021/07/07 11:53:23;;;;;;;1.00;0.80;;;23.20;62.20;;;;;;5123187;28;20047;-37
2021/07/07 11:55:59;;;;;;;1.17;0.90;;;23.20;62.20;;;;;;5123799;28;20091;-37
2021/07/07 11:58:35;;;;;;;1.90;1.05;;;23.20;62.20;;;;;;5123852;28;20489;-37
2021/07/07 12:01:09;;;;;;;1.30;0.80;;;23.20;62.30;;;;;;5123541;28;20053;-37
2021/07/07 12:03:36;;;;;;;0.95;0.60;;;23.20;62.20;;;;;;5123327;28;20023;-37
2021/07/07 12:06:09;;;;;;;1.00;0.68;;;23.20;62.30;;;;;;5123265;28;20089;-37
2021/07/07 12:08:39;;;;;;;0.80;0.60;;;23.20;62.30;;;;;;5109698;28;20031;-39
2021/07/07 12:11:18;;;;;;;1.02;0.90;;;23.20;62.40;;;;;;5123539;28;20039;-37
2021/07/07 12:13:49;;;;;;;0.70;0.60;;;23.20;62.30;;;;;;5123396;28;20412;-37
2021/07/07 12:16:33;;;;;;;0.88;0.55;;;23.20;62.40;;;;;;5123084;28;20028;-37
2021/07/07 12:19:01;;;;;;;1.73;1.10;;;23.20;62.40;;;;;;5122770;28;20047;-37
2021/07/07 12:21:28;;;;;;;1.10;0.80;;;23.20;62.60;;;;;;5123239;28;20047;-37
2021/07/07 12:23:56;;;;;;;1.00;0.70;;;23.20;62.60;;;;;;5123235;28;20049;-37
2021/07/07 12:26:23;;;;;;;0.90;0.70;;;23.20;62.60;;;;;;5123505;28;20035;-37
2021/07/07 12:28:49;;;;;;;1.05;0.70;;;23.20;62.30;;;;;;5123556;28;20023;-37
2021/07/07 12:31:16;;;;;;;2.00;0.80;;;23.20;62.20;;;;;;5101283;28;20103;-37
2021/07/07 12:33:43;;;;;;;1.13;0.77;;;23.20;62.20;;;;;;5101297;28;20117;-37
2021/07/07 12:36:09;;;;;;;0.82;0.70;;;23.20;62.20;;;;;;5108263;28;20035;-37
2021/07/07 12:38:46;;;;;;;2.03;0.73;;;23.20;62.20;;;;;;5125102;28;20032;-37
2021/07/07 12:41:13;;;;;;;1.13;0.85;;;23.20;62.20;;;;;;5109658;28;20027;-37
2021/07/07 12:43:56;;;;;;;1.27;0.88;;;23.20;62.20;;;;;;5125541;28;20028;-37
2021/07/07 12:46:23;;;;;;;1.00;0.70;;;23.20;62.30;;;;;;5127158;28;20023;-37
2021/07/07 12:48:55;;;;;;;0.82;0.70;;;23.20;62.20;;;;;;5126384;28;20027;-37
2021/07/07 12:51:26;;;;;;;1.55;1.02;;;23.20;62.30;;;;;;5126828;28;20054;-37